createdAt,value
2022-09-21T05:44:30.614Z,5.28
2022-09-21T05:47:18.787Z,8.13
2022-09-21T05:50:06.374Z,9.20
2022-09-21T05:52:39.548Z,5.15
2022-09-21T05:55:41.535Z,5.53
2022-09-21T05:58:21.460Z,6.07
2022-09-21T06:01:02.814Z,5.63
2022-09-21T06:03:31.453Z,6.25
2022-09-21T06:05:58.235Z,7.45
2022-09-21T06:08:25.716Z,6.82
2022-09-21T06:10:52.559Z,4.32
2022-09-21T06:13:18.984Z,6.13
2022-09-21T06:15:45.402Z,5.55
2022-09-21T06:18:16.974Z,9.30
2022-09-21T06:20:44.309Z,7.03
2022-09-21T06:23:11.991Z,8.20
2022-09-21T06:25:38.409Z,9.52
2022-09-21T06:28:10.186Z,5.85
2022-09-21T06:30:37.378Z,8.77
2022-09-21T06:33:05.696Z,7.85
2022-09-21T06:35:33.212Z,9.60
2022-09-21T06:38:04.604Z,8.55
2022-09-21T06:40:31.994Z,8.60
2022-09-21T06:42:59.392Z,12.15
2022-09-21T06:45:27.764Z,7.07
2022-09-21T06:47:54.156Z,11.55
2022-09-21T06:50:20.871Z,8.13
2022-09-21T06:52:47.478Z,10.60
2022-09-21T06:55:14.304Z,9.68
2022-09-21T06:57:40.871Z,9.00
2022-09-21T07:00:10.771Z,9.30
2022-09-21T07:02:42.828Z,5.88
2022-09-21T07:05:09.292Z,8.40
2022-09-21T07:07:36.328Z,7.70
2022-09-21T07:10:07.419Z,7.60
2022-09-21T07:12:35.214Z,6.68
2022-09-21T07:15:04.541Z,6.25
2022-09-21T07:17:32.927Z,8.98
2022-09-21T07:19:59.559Z,6.85
2022-09-21T07:22:26.020Z,5.45
2022-09-21T07:24:52.499Z,5.22
2022-09-21T07:27:18.928Z,8.15
2022-09-21T07:29:45.333Z,7.03
2022-09-21T07:32:13.333Z,6.60
2022-09-21T07:34:39.744Z,6.25
2022-09-21T07:37:06.160Z,7.03
2022-09-21T07:39:32.646Z,8.23
2022-09-21T07:41:59.061Z,7.07
2022-09-21T07:44:25.659Z,5.22
2022-09-21T07:46:52.275Z,8.43
2022-09-21T07:49:18.704Z,6.88
2022-09-21T07:51:45.109Z,8.57
2022-09-21T07:54:12.577Z,8.13
2022-09-21T07:56:39.166Z,7.78
2022-09-21T07:59:05.871Z,4.80
2022-09-21T08:01:40.081Z,8.45
2022-09-21T08:04:10.394Z,8.07
2022-09-21T08:06:39.762Z,7.20
2022-09-21T08:11:33.274Z,5.18
2022-09-21T08:14:01.435Z,6.03
2022-09-21T08:16:29.460Z,5.88
2022-09-21T08:18:56.040Z,7.18
2022-09-21T08:21:22.913Z,5.65
2022-09-21T08:23:49.457Z,12.32
2022-09-21T08:26:19.302Z,8.27
2022-09-21T08:28:49.716Z,8.23
2022-09-21T08:31:19.277Z,9.63
2022-09-21T08:33:46.649Z,5.68
2022-09-21T08:36:13.067Z,7.28
2022-09-21T08:38:39.832Z,6.57
2022-09-21T08:41:42.175Z,6.07
2022-09-21T08:44:15.166Z,7.18
2022-09-21T08:46:43.210Z,6.70
2022-09-21T08:49:21.616Z,6.80
2022-09-21T08:51:53.242Z,6.18
2022-09-21T08:54:25.404Z,5.82
2022-09-21T08:57:05.035Z,7.47
2022-09-21T08:59:34.028Z,9.02
2022-09-21T09:02:38.778Z,5.88
2022-09-21T09:05:33.693Z,9.13
2022-09-21T09:08:26.100Z,4.07
2022-09-21T09:11:13.488Z,4.68
2022-09-21T09:13:59.685Z,4.25
2022-09-21T09:16:44.639Z,2.78
2022-09-21T09:19:20.148Z,2.63
2022-09-21T09:21:46.889Z,2.53
2022-09-21T09:24:33.562Z,5.70
2022-09-21T09:27:07.372Z,2.67
2022-09-21T09:29:58.288Z,3.00
2022-09-21T09:32:33.253Z,3.75
2022-09-21T09:35:07.307Z,3.35
2022-09-21T09:37:36.671Z,2.00
2022-09-21T09:42:42.663Z,3.80
2022-09-21T09:45:40.307Z,4.60
2022-09-21T09:48:56.851Z,1.90
2022-09-21T09:51:23.673Z,3.00
2022-09-21T09:53:59.201Z,2.38
2022-09-21T09:56:26.561Z,2.25
2022-09-21T09:58:57.327Z,2.67
2022-09-21T10:01:37.060Z,3.00
2022-09-21T10:04:12.248Z,4.13
2022-09-21T10:06:43.725Z,3.03
2022-09-21T10:09:19.150Z,1.98
2022-09-21T10:11:46.592Z,1.85
2022-09-21T10:14:18.967Z,2.33
2022-09-21T10:16:45.490Z,1.52
2022-09-21T10:19:18.576Z,2.85
2022-09-21T10:21:51.359Z,2.60
2022-09-21T10:24:23.101Z,2.30
2022-09-21T10:27:03.287Z,1.38
2022-09-21T10:29:32.809Z,2.95
2022-09-21T10:32:13.731Z,1.85
2022-09-21T10:34:41.964Z,1.58
2022-09-21T10:37:27.348Z,0.98
2022-09-21T10:39:53.752Z,2.33
2022-09-21T10:42:20.457Z,2.28
2022-09-21T10:44:51.192Z,3.50
2022-09-21T10:47:34.355Z,2.13
2022-09-21T10:50:05.996Z,1.65
2022-09-21T10:52:43.345Z,3.92
2022-09-21T10:55:19.839Z,2.83
2022-09-21T10:57:46.847Z,2.97
2022-09-21T11:00:41.219Z,1.60
2022-09-21T11:03:40.220Z,2.35
2022-09-21T11:06:30.360Z,2.85
2022-09-21T11:09:04.696Z,4.03
2022-09-21T11:11:39.498Z,1.58
2022-09-21T11:14:35.043Z,3.20
2022-09-21T11:17:21.520Z,3.22
2022-09-21T11:20:04.372Z,1.83
2022-09-21T11:22:44.919Z,2.90
2022-09-21T11:25:36.516Z,2.63
2022-09-21T11:28:27.989Z,3.45
2022-09-21T11:31:14.739Z,3.35
2022-09-21T11:33:45.687Z,2.75
2022-09-21T11:36:20.567Z,2.50
2022-09-21T11:38:52.914Z,1.88
2022-09-21T11:41:42.263Z,4.53
2022-09-21T11:46:44.485Z,1.63
2022-09-21T11:49:28.284Z,1.95
2022-09-21T11:52:36.169Z,2.25
2022-09-21T11:55:12.327Z,4.25
2022-09-21T11:57:44.614Z,2.65
2022-09-21T12:00:17.773Z,2.38
2022-09-21T12:02:59.386Z,3.08
2022-09-21T12:05:29.087Z,4.40
2022-09-21T12:08:27.519Z,2.15
2022-09-21T12:11:19.561Z,2.28
2022-09-21T12:13:56.291Z,2.97
2022-09-21T12:17:06.023Z,3.70
2022-09-21T12:19:48.368Z,2.28
2022-09-21T12:22:31.330Z,3.03
2022-09-21T12:25:19.990Z,1.73
2022-09-21T12:27:51.568Z,2.05
2022-09-21T12:30:20.603Z,2.45
2022-09-21T12:33:00.803Z,1.85
2022-09-21T12:35:27.182Z,4.60
2022-09-21T12:37:58.921Z,1.50
2022-09-21T12:40:37.492Z,1.23
2022-09-21T12:43:27.883Z,1.50
2022-09-21T12:46:05.469Z,2.72
2022-09-21T12:48:39.499Z,1.77
2022-09-21T12:51:23.882Z,1.00
2022-09-21T12:53:55.234Z,0.73
2022-09-21T12:57:29.819Z,1.10
2022-09-21T13:00:04.986Z,1.23
2022-09-21T13:02:41.056Z,1.27
2022-09-21T13:05:13.632Z,2.53
2022-09-21T13:08:06.429Z,3.05
2022-09-21T13:10:55.434Z,1.90
2022-09-21T13:13:41.493Z,1.35
2022-09-21T13:16:23.563Z,1.67
2022-09-21T13:18:56.220Z,1.75
2022-09-21T13:21:29.706Z,2.42
2022-09-21T13:24:00.675Z,1.52
2022-09-21T13:26:36.383Z,1.05
2022-09-21T13:29:22.660Z,1.85
2022-09-21T13:31:58.234Z,3.88
2022-09-21T13:34:28.330Z,3.60
2022-09-21T13:37:34.143Z,1.27
2022-09-21T13:40:04.050Z,1.38
2022-09-21T13:42:30.766Z,2.08
2022-09-21T13:44:58.310Z,2.47
2022-09-21T13:47:32.948Z,1.92
2022-09-21T13:50:03.122Z,3.10
2022-09-21T13:52:40.083Z,2.33
2022-09-21T13:55:20.726Z,1.92
2022-09-21T13:57:50.544Z,1.42
2022-09-21T14:00:16.835Z,1.45
2022-09-21T14:02:58.645Z,1.38
2022-09-21T14:05:41.540Z,2.50
2022-09-21T14:08:35.440Z,2.90
2022-09-21T14:11:06.272Z,1.90
2022-09-21T14:13:35.019Z,1.10
2022-09-21T14:16:37.341Z,1.65
2022-09-21T14:19:26.740Z,1.67
2022-09-21T14:22:08.211Z,3.08
2022-09-21T14:24:38.277Z,0.98
2022-09-21T14:27:17.523Z,2.50
2022-09-21T14:32:23.597Z,0.65
2022-09-21T14:35:11.099Z,1.15
2022-09-21T14:37:41.485Z,1.63
2022-09-21T14:40:25.970Z,0.98
2022-09-21T14:42:54.436Z,1.15
2022-09-21T14:45:27.804Z,0.65
2022-09-21T14:48:04.350Z,2.28
2022-09-21T14:50:39.515Z,1.48
2022-09-21T14:53:55.760Z,0.93
2022-09-21T14:56:43.736Z,0.70
2022-09-21T14:59:32.103Z,0.93
2022-09-21T15:02:12.935Z,2.65
2022-09-21T15:05:09.231Z,2.58
2022-09-21T15:08:24.227Z,0.75
2022-09-21T15:10:57.787Z,0.93
2022-09-21T15:13:38.415Z,1.77
2022-09-21T15:16:25.654Z,2.83
2022-09-21T15:19:20.670Z,1.23
2022-09-21T15:21:52.576Z,1.27
2022-09-21T15:24:20.429Z,0.88
2022-09-21T15:26:48.433Z,1.25
2022-09-21T15:29:25.889Z,0.73
2022-09-21T15:31:52.907Z,0.82
2022-09-21T15:34:19.617Z,0.95
2022-09-21T15:36:50.934Z,1.02
2022-09-21T15:39:29.188Z,1.00
2022-09-21T15:42:22.277Z,1.45
2022-09-21T15:44:50.531Z,0.77
2022-09-21T15:47:21.047Z,0.73
2022-09-21T15:49:47.990Z,1.30
2022-09-21T15:52:31.786Z,1.13
2022-09-21T15:55:02.724Z,1.08
2022-09-21T15:57:40.338Z,1.52
2022-09-21T16:00:22.111Z,1.15
2022-09-21T16:03:04.527Z,1.20
2022-09-21T16:05:34.091Z,1.20
2022-09-21T16:08:17.125Z,1.42
2022-09-21T16:10:44.580Z,0.80
2022-09-21T16:13:34.115Z,1.02
2022-09-21T16:16:02.662Z,1.27
2022-09-21T16:18:40.324Z,1.52
2022-09-21T16:21:17.089Z,1.83
2022-09-21T16:23:43.524Z,1.48
2022-09-21T16:26:18.727Z,1.23
2022-09-21T16:28:45.176Z,1.25
2022-09-21T16:31:22.163Z,2.72
2022-09-21T16:33:49.053Z,1.00
2022-09-21T16:36:25.454Z,1.10
2022-09-21T16:38:55.502Z,0.95
2022-09-21T16:41:24.656Z,1.42
2022-09-21T16:43:52.021Z,3.05
2022-09-21T16:46:18.541Z,3.05
2022-09-21T16:48:45.155Z,4.25
2022-09-21T16:51:12.622Z,1.10
2022-09-21T16:53:39.031Z,0.60
2022-09-21T16:56:06.919Z,1.67
2022-09-21T16:58:33.343Z,2.92
2022-09-21T17:01:01.081Z,0.70
2022-09-21T17:03:29.090Z,1.00
2022-09-21T17:05:57.213Z,0.70
2022-09-21T17:08:24.463Z,1.20
2022-09-21T17:10:50.923Z,1.50
2022-09-21T17:13:19.141Z,1.05
2022-09-21T17:15:47.316Z,3.63
2022-09-21T17:18:14.055Z,3.03
2022-09-21T17:20:43.090Z,2.03
2022-09-21T17:23:09.909Z,0.57
2022-09-21T17:25:36.949Z,4.03
2022-09-21T17:28:10.324Z,1.25
2022-09-21T17:30:38.035Z,1.02
2022-09-21T17:33:04.479Z,0.95
2022-09-21T17:35:38.829Z,1.02
2022-09-21T17:38:05.919Z,2.47
2022-09-21T17:40:32.770Z,1.92
2022-09-21T17:43:22.116Z,2.22
2022-09-21T17:45:57.979Z,3.03
2022-09-21T17:48:24.653Z,1.33
2022-09-21T17:50:52.333Z,1.05
2022-09-21T17:53:34.382Z,1.42
2022-09-21T17:56:20.503Z,1.08
2022-09-21T17:59:01.813Z,1.75
2022-09-21T18:01:38.740Z,3.28
2022-09-21T18:04:07.052Z,3.13
2022-09-21T18:06:34.860Z,1.75
2022-09-21T18:09:02.022Z,1.75
2022-09-21T18:11:40.659Z,1.10
2022-09-21T18:14:15.474Z,2.20
2022-09-21T18:17:14.818Z,3.42
2022-09-21T18:19:42.621Z,2.60
2022-09-21T18:22:21.106Z,2.50
2022-09-21T18:24:48.443Z,3.25
2022-09-21T18:27:16.549Z,1.50
2022-09-21T18:29:43.615Z,3.42
2022-09-21T18:32:22.144Z,3.72
2022-09-21T18:35:08.584Z,2.70
2022-09-21T18:38:13.006Z,2.55
2022-09-21T18:41:05.657Z,2.38
2022-09-21T18:43:47.334Z,3.63
2022-09-21T18:46:18.227Z,0.80
2022-09-21T18:48:57.596Z,1.45
2022-09-21T18:53:58.302Z,1.95
2022-09-21T18:56:27.344Z,1.95
2022-09-21T18:58:53.993Z,1.30
2022-09-21T19:01:22.681Z,1.48
2022-09-21T19:03:49.783Z,2.33
2022-09-21T19:06:39.369Z,2.80
2022-09-21T19:09:12.688Z,1.50
2022-09-21T19:11:58.027Z,1.30
2022-09-21T19:14:27.075Z,1.42
2022-09-21T19:17:03.706Z,2.25
2022-09-21T19:20:10.438Z,1.80
2022-09-21T19:23:00.548Z,3.08
2022-09-21T19:25:56.803Z,1.65
2022-09-21T19:29:00.601Z,3.55
2022-09-21T19:31:27.195Z,2.45
2022-09-21T19:33:53.711Z,1.90
2022-09-21T19:36:22.576Z,1.27
2022-09-21T19:38:49.141Z,2.80
2022-09-21T19:41:29.169Z,1.77
2022-09-21T19:44:05.396Z,1.90
2022-09-21T19:46:58.025Z,2.00
2022-09-21T19:49:33.448Z,3.45
2022-09-21T19:52:04.473Z,1.77
2022-09-21T19:54:49.450Z,3.67
2022-09-21T19:57:36.453Z,2.22
2022-09-21T20:00:06.180Z,1.17
2022-09-21T20:02:49.870Z,2.70
2022-09-21T20:05:28.836Z,1.75
2022-09-21T20:08:20.161Z,1.23
2022-09-21T20:11:07.450Z,7.90
2022-09-21T20:13:59.717Z,3.00
2022-09-21T20:16:36.494Z,1.50
2022-09-21T20:19:36.464Z,4.78
2022-09-21T20:22:17.818Z,2.13
2022-09-21T20:25:36.817Z,1.38
2022-09-21T20:28:03.926Z,2.40
2022-09-21T20:30:32.820Z,4.63
2022-09-21T20:33:01.894Z,1.40
2022-09-21T20:35:30.713Z,3.65
2022-09-21T20:38:01.975Z,1.58
2022-09-21T20:40:29.403Z,2.40
2022-09-21T20:42:56.969Z,2.67
2022-09-21T20:45:23.618Z,2.25
2022-09-21T20:47:50.975Z,8.63
2022-09-21T20:50:18.143Z,2.40
2022-09-21T20:52:45.275Z,1.50
2022-09-21T20:55:17.081Z,2.88
2022-09-21T20:57:44.059Z,2.38
2022-09-21T21:00:13.525Z,1.15
2022-09-21T21:02:40.850Z,1.60
2022-09-21T21:05:08.085Z,2.03
2022-09-21T21:07:35.164Z,2.10
2022-09-21T21:10:02.169Z,2.03
2022-09-21T21:12:29.120Z,3.10
2022-09-21T21:14:56.108Z,2.33
2022-09-21T21:17:22.504Z,2.15
2022-09-21T21:19:48.942Z,4.35
2022-09-21T21:22:15.416Z,1.85
2022-09-21T21:24:44.001Z,4.78
2022-09-21T21:27:21.940Z,1.90
2022-09-21T21:29:50.239Z,2.58
2022-09-21T21:32:24.428Z,2.78
2022-09-21T21:34:52.073Z,4.35
2022-09-21T21:37:19.848Z,3.47
2022-09-21T21:39:46.479Z,2.92
2022-09-21T21:42:12.928Z,1.73
2022-09-21T21:44:39.355Z,1.38
2022-09-21T21:47:27.488Z,2.10
2022-09-21T21:49:52.355Z,6.00
2022-09-21T21:52:21.012Z,1.73
2022-09-21T21:54:47.451Z,3.60
2022-09-21T21:57:14.820Z,2.15
2022-09-21T21:59:43.061Z,1.50
2022-09-21T22:02:10.311Z,1.58
2022-09-21T22:04:36.791Z,1.88
2022-09-21T22:07:04.016Z,2.90
2022-09-21T22:09:30.427Z,7.57
2022-09-21T22:11:58.193Z,1.90
2022-09-21T22:14:24.679Z,4.63
2022-09-21T22:16:51.350Z,2.92
2022-09-21T22:19:21.104Z,1.50
2022-09-21T22:21:53.197Z,1.52
2022-09-21T22:24:21.052Z,3.58
2022-09-21T22:26:48.492Z,2.88
2022-09-21T22:29:16.472Z,1.10
2022-09-21T22:31:46.105Z,2.05
2022-09-21T22:34:12.984Z,1.70
2022-09-21T22:36:40.901Z,2.58
2022-09-21T22:39:08.178Z,1.40
2022-09-21T22:41:37.232Z,2.92
2022-09-21T22:44:03.867Z,1.23
2022-09-21T22:46:31.225Z,2.53
2022-09-21T22:48:57.681Z,2.47
2022-09-21T22:51:24.324Z,1.23
2022-09-21T22:53:51.108Z,2.03
2022-09-21T22:56:20.188Z,3.65
2022-09-21T22:58:48.680Z,2.97
2022-09-21T23:01:20.512Z,1.03
2022-09-21T23:03:48.827Z,4.70
2022-09-21T23:06:17.635Z,2.10
2022-09-21T23:08:49.011Z,1.25
2022-09-21T23:11:27.484Z,3.90
2022-09-21T23:13:54.765Z,1.38
2022-09-21T23:16:23.049Z,1.33
2022-09-21T23:18:49.957Z,3.78
2022-09-21T23:21:18.841Z,1.35
2022-09-21T23:23:45.545Z,2.13
2022-09-21T23:26:20.392Z,2.15
2022-09-21T23:28:54.736Z,2.05
2022-09-21T23:31:21.542Z,3.20
2022-09-21T23:33:50.230Z,1.42
2022-09-21T23:36:20.148Z,1.17
2022-09-21T23:38:48.430Z,3.10
2022-09-21T23:41:25.939Z,2.38
2022-09-21T23:43:52.788Z,1.13
2022-09-21T23:46:21.346Z,3.03
2022-09-21T23:48:48.363Z,6.07
2022-09-21T23:51:15.261Z,2.17
2022-09-21T23:53:42.264Z,2.13
2022-09-21T23:56:11.538Z,2.13
2022-09-21T23:58:37.954Z,1.60
